ADDS METAR Data INFO
IDs: Format: Raw Decoded Include TAF

Data at: 1928 UTC 19 Jul 2018

K1P1 191915Z AUTO 00000KT 10SM CLR 26/07 A3007 RMK AO2 T02600065
K1P1 191855Z AUTO 00000KT 10SM CLR 26/06 A3007 RMK AO2 T02560063
K1P1 191835Z AUTO 28003KT 10SM CLR 26/07 A3007 RMK AO2 T02550067
K1P1 191815Z AUTO 27004KT 10SM CLR 25/08 A3007 RMK AO2 T02540076
K1P1 191755Z AUTO 27006KT 10SM CLR 25/07 A3008 RMK AO2 T02500068 10250 20116
K1P1 191735Z AUTO 29007KT 10SM CLR 25/08 A3008 RMK AO2 T02480078
K1P1 191715Z AUTO 29005KT 10SM CLR 24/07 A3008 RMK AO2 T02430074
K1P1 191655Z AUTO 00000KT 10SM CLR 24/07 A3008 RMK AO2 T02400072
K1P1 191635Z AUTO 27005KT 10SM CLR 24/08 A3009 RMK AO2 T02390078
K1P1 191615Z AUTO 28005KT 10SM CLR 24/08 A3009 RMK AO2 T02390077
K1P1 191555Z AUTO 00000KT 7SM CLR 23/07 A3009 RMK AO2 T02320065
K1P1 191535Z AUTO 29006KT 10SM CLR 23/07 A3009 RMK AO2 T02310071
K1P1 191515Z AUTO 27004KT 10SM CLR 23/07 A3010 RMK AO2 T02280068
K1P1 191455Z AUTO 29003KT 10SM CLR 22/10 A3010 RMK AO2 T02210096
K1P1 191435Z AUTO 32003KT CLR 22/10 A3010 RMK AO2 T02150095 PWINO
K1P1 191415Z AUTO 32005KT CLR 21/09 A3010 RMK AO2 T02050093 PWINO
K1P1 191355Z AUTO 00000KT CLR 20/10 A3010 RMK AO2 T01980097 PWINO
K1P1 191335Z AUTO 31003KT CLR 19/10 A3010 RMK AO2 T01870101 PWINO
K1P1 191315Z AUTO 00000KT CLR 17/10 A3010 RMK AO2 T01700095 PWINO
K1P1 191255Z AUTO 00000KT CLR 16/10 A3010 RMK AO2 T01590100 PWINO
K1P1 191235Z AUTO 00000KT CLR 14/10 A3011 RMK AO2 T01390101 PWINO
K1P1 191215Z AUTO 00000KT 12/10 A3011 RMK AO2 T01240097 PWINO
K1P1 191155Z AUTO 00000KT 11/10 A3011 RMK AO2 T01140097 10114 20053 PWINO
K1P1 191135Z AUTO 00000KT 10/09 A3011 RMK AO2 T01000093 PWINO
K1P1 191115Z AUTO 00000KT 09/09 A3011 RMK AO2 T00930088 PWINO
K1P1 191055Z AUTO 00000KT 09/08 A3011 RMK AO2 T00860082 PWINO
K1P1 191035Z AUTO 00000KT 08/07 A3011 RMK AO2 T00750071 PWINO
K1P1 191015Z AUTO 00000KT 06/06 A3010 RMK AO2 T00630060 PWINO
K1P1 190955Z AUTO 00000KT 06/06 A3009 RMK AO2 T00590055 PWINO
K1P1 190935Z AUTO 00000KT 06/06 A3009 RMK AO2 T00610057 PWINO
K1P1 190915Z AUTO 00000KT 06/06 A3008 RMK AO2 T00610057 PWINO
K1P1 190855Z AUTO 00000KT 06/06 A3008 RMK AO2 T00620058 PWINO
K1P1 190835Z AUTO 00000KT 06/06 A3007 RMK AO2 T00640059 PWINO
K1P1 190815Z AUTO 00000KT 07/06 A3007 RMK AO2 T00680064 PWINO
K1P1 190755Z AUTO 00000KT 07/07 A3006 RMK AO2 T00710066 PWINO
K1P1 190735Z AUTO 00000KT 07/07 A3006 RMK AO2 T00700065 PWINO
K1P1 190715Z AUTO 00000KT 07/07 A3006 RMK AO2 T00740068 PWINO
K1P1 190655Z AUTO 00000KT 08/07 A3005 RMK AO2 T00750070 PWINO
K1P1 190635Z AUTO 00000KT 08/07 A3005 RMK AO2 T00760070 PWINO
K1P1 190615Z AUTO 00000KT 08/08 A3004 RMK AO2 T00830076 PWINO
K1P1 190555Z AUTO 00000KT 09/08 A3004 RMK AO2 T00850077 10203 20085 PWINO
K1P1 190535Z AUTO 00000KT 09/08 A3004 RMK AO2 T00890081 PWINO
K1P1 190515Z AUTO 00000KT 10/09 A3004 RMK AO2 T00950086 PWINO
K1P1 190455Z AUTO 00000KT 10/09 A3003 RMK AO2 T00950086 PWINO
K1P1 190435Z AUTO 00000KT 10/09 A3002 RMK AO2 T00990088 PWINO
K1P1 190415Z AUTO 00000KT 10/09 A3002 RMK AO2 T01040092 PWINO
K1P1 190355Z AUTO 00000KT 11/10 A3001 RMK AO2 T01100095 402410107 PWINO
K1P1 190335Z AUTO 00000KT 11/09 A3001 RMK AO2 T01130094 PWINO
K1P1 190315Z AUTO 31003KT 12/09 A3001 RMK AO2 T01190094 PWINO
K1P1 190255Z AUTO 00000KT 12/10 A3001 RMK AO2 T01190097 PWINO
K1P1 190235Z AUTO 00000KT CLR 13/10 A3000 RMK AO2 T01340096 PWINO
K1P1 190215Z AUTO 29004KT CLR 14/10 A3000 RMK AO2 T01440100 PWINO
K1P1 190155Z AUTO 31003KT CLR 15/10 A2999 RMK AO2 T01460100 PWINO
K1P1 190135Z AUTO 00000KT CLR 15/10 A2999 RMK AO2 T01520095 PWINO
K1P1 190115Z AUTO 30003KT CLR 16/10 A2998 RMK AO2 T01600099 PWINO
K1P1 190055Z AUTO 27004KT CLR 17/09 A2997 RMK AO2 T01710093 PWINO
K1P1 190035Z AUTO 31005KT CLR 19/07 A2996 RMK AO2 T01870073 PWINO
K1P1 190015Z AUTO 32004KT CLR 19/08 A2996 RMK AO2 T01910079 PWINO
K1P1 182355Z AUTO 31004KT CLR 20/08 A2995 RMK AO2 T02040079 10241 20204 PWINO
K1P1 182335Z AUTO 31005KT CLR 21/08 A2994 RMK AO2 T02130079 PWINO
K1P1 182315Z AUTO 30005KT CLR 22/08 A2993 RMK AO2 T02210077 PWINO
K1P1 182255Z AUTO 31005KT CLR 23/07 A2993 RMK AO2 T02250071 PWINO
K1P1 182235Z AUTO 30007KT CLR 23/07 A2992 RMK AO2 T02300073 PWINO
K1P1 182215Z AUTO 30009KT CLR 23/07 A2992 RMK AO2 T02310070 PWINO
K1P1 182155Z AUTO 29008G14KT CLR 23/07 A2992 RMK AO2 T02320068 PWINO
K1P1 182135Z AUTO 31007KT CLR 24/07 A2991 RMK AO2 T02350071 PWINO
K1P1 182115Z AUTO 30008KT CLR 24/07 A2991 RMK AO2 T02360072 PWINO
K1P1 182055Z AUTO 29009KT CLR 24/08 A2991 RMK AO2 T02390077 PWINO
K1P1 182035Z AUTO 29007G15KT CLR 24/08 A2991 RMK AO2 T02380075 PWINO
K1P1 182015Z AUTO 29009G16KT CLR 24/07 A2991 RMK AO2 T02390072 PWINO
K1P1 181955Z AUTO 30008KT CLR 24/08 A2991 RMK AO2 T02410082 PWINO
K1P1 181935Z AUTO 30006G15KT CLR 24/08 A2991 RMK AO2 T02360080 PWINO
K1P1 181915Z AUTO 30008KT CLR 24/09 A2991 RMK AO2 T02350085 PWINO
K1P1 181855Z AUTO 30011G15KT CLR 23/09 A2991 RMK AO2 T02340087 PWINO
K1P1 181835Z AUTO 29010G16KT CLR 23/09 A2991 RMK AO2 T02310085 PWINO
K1P1 181815Z AUTO 28008G15KT CLR 23/08 A2990 RMK AO2 T02280079 PWINO
K1P1 181755Z AUTO 29010G16KT CLR 23/09 A2990 RMK AO2 T02290085 10229 20173 PWINO
K1P1 181735Z AUTO 30009G16KT CLR 22/08 A2990 RMK AO2 T02230076 PWINO
K1P1 181715Z AUTO 29011G17KT CLR 22/08 A2990 RMK AO2 T02200076 PWINO
K1P1 181655Z AUTO 31008G16KT CLR 22/07 A2991 RMK AO2 T02210070 PWINO
K1P1 181635Z AUTO 31012G16KT CLR 22/10 A2991 RMK AO2 T02200096 PWINO
K1P1 181615Z AUTO 31006KT CLR 21/09 A2991 RMK AO2 T02140092 PWINO
K1P1 181555Z AUTO 32012G18KT 280V340 CLR 21/09 A2992 RMK AO2 T02120087 PWINO
K1P1 181535Z AUTO 31011KT 280V340 CLR 21/08 A2992 RMK AO2 T02060080 PWINO
K1P1 181515Z AUTO 30010G16KT CLR 20/08 A2993 RMK AO2 T02000083 PWINO
K1P1 181455Z AUTO 30010G14KT CLR 20/10 A2993 RMK AO2 T01980095 PWINO
K1P1 181435Z AUTO 28008KT CLR 19/09 A2993 RMK AO2 T01940093 PWINO
K1P1 181415Z AUTO 29006KT CLR 19/09 A2993 RMK AO2 T01900085 PWINO
K1P1 181355Z AUTO 27008KT 230V290 CLR 19/09 A2993 RMK AO2 T01870090 PWINO
K1P1 181335Z AUTO 28007KT CLR 19/11 A2992 RMK AO2 T01850107 PWINO
K1P1 181315Z AUTO 29006KT CLR 18/11 A2992 RMK AO2 T01780111 PWINO
K1P1 181255Z AUTO 28006KT CLR 18/12 A2992 RMK AO2 T01750115 PWINO
K1P1 181235Z AUTO 29007KT CLR 18/12 A2992 RMK AO2 T01760120 PWINO
K1P1 181215Z AUTO 30009KT CLR 18/12 A2992 RMK AO2 T01750115 PWINO
K1P1 181155Z AUTO 28003KT CLR 17/13 A2992 RMK AO2 70071 T01730128 10190 20156 PWINO
K1P1 181135Z AUTO 00000KT CLR 17/13 A2992 RMK AO2 T01680130 PWINO
K1P1 181115Z AUTO 26007KT CLR 17/13 A2992 RMK AO2 T01680131 PWINO
K1P1 181055Z AUTO 30004KT SCT030 SCT035 17/13 A2991 RMK AO2 T01670134 PWINO
K1P1 181035Z AUTO 30003KT 16/14 A2990 RMK AO2 T01630136 PWINO
K1P1 181015Z AUTO 00000KT 16/14 A2989 RMK AO2 T01610138 PWINO
K1P1 180955Z AUTO 00000KT 16/14 A2989 RMK AO2 T01560139 PWINO
K1P1 180935Z AUTO 28003KT 16/14 A2988 RMK AO2 T01570140 PWINO
K1P1 180915Z AUTO 28004KT 16/14 A2986 RMK AO2 T01600142 PWINO
K1P1 180855Z AUTO 00000KT 16/15 A2985 RMK AO2 T01630145 PWINO
K1P1 180835Z AUTO 00000KT 17/15 A2983 RMK AO2 T01680149 PWINO
K1P1 180815Z AUTO 28004KT 17/15 A2983 RMK AO2 T01700151 PWINO
K1P1 180755Z AUTO 00000KT 18/15 A2983 RMK AO2 T01750153 PWINO
K1P1 180735Z AUTO 00000KT 18/16 A2982 RMK AO2 T01770158 PWINO